• Join FlightAware (Why Join?)
  • Login
  • US Flag 
08:42AM EDT


 

Airport Tracker/Info


-or-


 

Live Flight TrackerFlight Track Log ✈ GLA170 ✈ 10-May-2013 ✈ KLAX - KIGM

Flight Track Log - Related Links

Times and Time Zones

All times are in EDT time to prevent confusion due to time zone crossing. See the GLA170 flight status page for this flight to view local times or setup timezone preferences in your user account.

Time Position Orientation Groundspeed Altitude Reporting Facility
EDT Latitude Longitude Course Direction KTS MPH feet Rate Location/Type
08:36PM 33.9333 -118.4500 179° South 165 190 2,000  Level Southern California TRACON
08:37PM 33.8836 -118.4486 179° South 189 217 3,600 1,560 Climbing Los Angeles Center
08:38PM 33.8208 -118.4486 180° South 190 219 5,500 1,620 Climbing Los Angeles Center
08:39PM 33.7725 -118.4317 164° South 200 230 7,000 1,440 Climbing Los Angeles Center
08:40PM 33.7425 -118.3808 125° Southeast 191 220 8,600 1,500 Climbing Los Angeles Center
08:41PM 33.7303 -118.3158 103° East 193 222 10,200 1,380 Climbing Los Angeles Center
08:42PM 33.7406 -118.2578 78° East 191 220 11,500 1,320 Climbing Los Angeles Center
08:43PM 33.7517 -118.1989 77° East 185 213 13,000 1,260 Climbing Los Angeles Center
08:44PM 33.7669 -118.1389 73° East 187 215 14,200 1,320 Climbing Los Angeles Center
08:45PM 33.7808 -118.0614 78° East 199 229 15,800 1,320 Climbing Los Angeles Center
08:46PM 33.7719 -117.9931 99° East 208 239 17,000 1,020 Climbing Los Angeles Center
08:47PM 33.7714 -117.9236 91° East 210 242 18,000 960 Climbing Los Angeles Center
08:48PM 33.7689 -117.8536 92° East 211 243 19,000 480 Climbing Los Angeles Center
08:49PM 33.7608 -117.7764 97° East 232 267 19,000  Level Los Angeles Center
08:50PM 33.7517 -117.6933 98° East 249 287 19,000  Level Los Angeles Center
08:51PM 33.7419 -117.5894 96° East 260 299 19,000  Level Los Angeles Center
08:52PM 33.7350 -117.4997 95° East 269 310 19,000  Level Los Angeles Center
08:53PM 33.7272 -117.4122 96° East 266 306 19,000  Level Los Angeles Center
08:54PM 33.7181 -117.3225 97° East 273 314 19,000  Level Los Angeles Center
08:55PM 33.7075 -117.2350 98° East 268 308 19,000  Level Los Angeles Center
08:56PM 33.7008 -117.1456 95° East 269 310 19,000  Level Los Angeles Center
08:58PM 33.6886 -117.0414 98° East 264 304 19,000  Level Los Angeles Center
08:59PM 33.6758 -116.9347 98° East 269 310 19,000  Level Los Angeles Center
09:00PM 33.6689 -116.8414 95° East 263 303 19,000  Level Los Angeles Center
09:01PM 33.6653 -116.7531 93° East 264 304 19,000  Level Los Angeles Center
09:02PM 33.6617 -116.6625 93° East 269 310 19,000  Level Los Angeles Center
09:03PM 33.6606 -116.5753 91° East 263 303 19,000  Level Los Angeles Center
09:04PM 33.6567 -116.4906 93° East 256 295 19,000  Level Los Angeles Center
09:05PM 33.6494 -116.4036 96° East 259 298 19,000  Level Los Angeles Center
09:06PM 33.6411 -116.2997 95° East 261 300 19,000  Level Los Angeles Center
09:07PM 33.6311 -116.1961 97° East 260 299 19,000  Level Los Angeles Center
09:08PM 33.6603 -116.1242 64° Northeast 250 288 19,000  Level Los Angeles Center
09:09PM 33.7033 -116.0597 51° Northeast 246 283 19,000  Level Los Angeles Center
09:10PM 33.7461 -115.9983 50° Northeast 242 278 19,000  Level Los Angeles Center
09:11PM 33.7919 -115.9347 49° Northeast 248 285 19,000  Level Los Angeles Center
09:12PM 33.8331 -115.8678 54° Northeast 249 287 19,000  Level Los Angeles Center
09:13PM 33.8775 -115.8014 51° Northeast 252 290 19,000  Level Los Angeles Center
09:14PM 33.9367 -115.7267 46° Northeast 256 295 19,000  Level Los Angeles Center
09:15PM 33.9867 -115.6667 45° Northeast 254 292 19,000  Level Los Angeles Center
09:16PM 34.0322 -115.5992 51° Northeast 259 298 19,000  Level Los Angeles Center
09:18PM 34.0767 -115.5297 52° Northeast 261 300 19,000  Level Los Angeles Center
09:19PM 34.1361 -115.4528 47° Northeast 260 299 19,000  Level Los Angeles Center
09:20PM 34.1886 -115.3956 42° Northeast 258 297 19,000  Level Los Angeles Center
09:21PM 34.2403 -115.3147 52° Northeast 254 292 19,000  Level Los Angeles Center
09:22PM 34.2772 -115.2419 58° Northeast 252 290 19,000  Level Los Angeles Center
09:23PM 34.3139 -115.1708 58° Northeast 252 290 19,000  Level Los Angeles Center
09:24PM 34.3578 -115.1047 51° Northeast 251 289 19,000  Level Los Angeles Center
09:25PM 34.4072 -115.0406 47° Northeast 256 295 19,000  Level Los Angeles Center
09:26PM 34.4542 -114.9744 49° Northeast 259 298 19,000  Level Los Angeles Center
09:27PM 34.4983 -114.9081 51° Northeast 257 296 19,000  Level Los Angeles Center
09:28PM 34.5456 -114.8269 55° Northeast 247 284 19,000  Level Los Angeles Center
09:29PM 34.5786 -114.7708 54° Northeast 250 288 19,000  Level Los Angeles Center
09:30PM 34.6419 -114.6994 43° Northeast 256 295 19,000 -660 Level Los Angeles Center
09:31PM 34.6958 -114.6406 42° Northeast 258 297 17,700 -1,140 Descending Los Angeles Center
09:32PM 34.7503 -114.5817 42° Northeast 261 300 16,700 -1,080 Descending Los Angeles Center
09:33PM 34.8011 -114.5203 45° Northeast 259 298 15,500 -1,080 Descending Los Angeles Center
09:34PM 34.8411 -114.4703 46° Northeast 257 296 14,600 -900 Descending Los Angeles Center